Time;durP1;ratioP1;P1;durP2;ratioP2;P2;SDS_P1;SDS_P2;PMS_P1;PMS_P2;Temp;Humidity;BMP_temperature;BMP_pressure;BME280_temperature;BME280_humidity;BME280_pressure;Samples;Min_cycle;Max_cycle;Signal;HPM_P1;HPM_P2
2021/03/14 00:00:28;;;;;;;9.27;1.15;;;;;;;;;;6233694;23;20012;-86
2021/03/14 00:02:56;;;;;;;5.97;1.00;;;;;;;;;;6268958;23;20008;-87
2021/03/14 00:05:23;;;;;;;6.78;1.17;;;;;;;;;;6208172;23;20016;-88
2021/03/14 00:07:51;;;;;;;7.25;1.00;;;;;;;;;;6234604;23;20099;-89
2021/03/14 00:10:18;;;;;;;5.20;0.98;;;;;;;;;;6258985;23;20310;-87
2021/03/14 00:12:45;;;;;;;5.30;1.00;;;;;;;;;;6234607;23;20068;-88
2021/03/14 00:15:13;;;;;;;8.10;1.27;;;;;;;;;;6259897;23;20012;-88
2021/03/14 00:17:40;;;;;;;6.40;1.05;;;;;;;;;;6234307;23;20511;-88
2021/03/14 00:20:08;;;;;;;7.38;1.05;;;;;;;;;;6235429;23;20062;-89
2021/03/14 00:22:36;;;;;;;8.18;1.23;;;;;;;;;;6261838;23;20024;-86
2021/03/14 00:25:04;;;;;;;9.02;1.30;;;;;;;;;;6260996;23;20040;-88
2021/03/14 00:27:32;;;;;;;5.43;1.05;;;;;;;;;;6261443;23;20046;-88
2021/03/14 00:29:59;;;;;;;4.60;1.00;;;;;;;;;;6263043;23;20020;-88
2021/03/14 00:32:27;;;;;;;8.93;1.27;;;;;;;;;;6236501;23;20012;-88
2021/03/14 00:34:54;;;;;;;5.03;0.80;;;;;;;;;;6261346;23;20168;-88
2021/03/14 00:37:21;;;;;;;6.95;1.50;;;;;;;;;;6210867;23;20009;-86
2021/03/14 00:39:49;;;;;;;5.60;1.15;;;;;;;;;;6235396;23;20008;-87
2021/03/14 00:42:16;;;;;;;14.15;1.67;;;;;;;;;;6261806;23;20013;-88
2021/03/14 00:44:47;;;;;;;9.60;1.80;;;;;;;;;;6238105;23;20452;-88
2021/03/14 00:47:14;;;;;;;11.38;1.63;;;;;;;;;;6260950;23;20060;-88
2021/03/14 00:49:41;;;;;;;10.00;1.58;;;;;;;;;;6235790;23;20020;-88
2021/03/14 00:52:09;;;;;;;10.15;1.70;;;;;;;;;;6260011;23;20456;-89
2021/03/14 00:54:36;;;;;;;13.98;1.88;;;;;;;;;;6235908;23;20019;-89
2021/03/14 00:57:03;;;;;;;10.45;1.60;;;;;;;;;;6234038;23;20020;-87
2021/03/14 00:59:30;;;;;;;10.38;1.73;;;;;;;;;;6260888;23;20099;-89
2021/03/14 01:02:00;;;;;;;8.30;1.35;;;;;;;;;;6261964;23;20430;-88
2021/03/14 01:04:27;;;;;;;14.52;2.28;;;;;;;;;;6210874;23;20016;-90
2021/03/14 01:07:00;;;;;;;11.95;1.67;;;;;;;;;;6261535;23;20088;-87
2021/03/14 01:09:27;;;;;;;15.13;1.60;;;;;;;;;;6236245;23;20333;-88
2021/03/14 01:11:55;;;;;;;15.50;2.60;;;;;;;;;;6260984;23;20012;-86
2021/03/14 01:14:22;;;;;;;12.52;1.85;;;;;;;;;;6235851;23;20012;-88
2021/03/14 01:16:49;;;;;;;14.77;2.70;;;;;;;;;;6237104;23;20023;-88
2021/03/14 01:19:17;;;;;;;20.15;2.53;;;;;;;;;;6235808;23;20087;-88
2021/03/14 01:21:44;;;;;;;20.05;2.78;;;;;;;;;;6236525;23;20066;-87
2021/03/14 01:24:11;;;;;;;19.27;2.60;;;;;;;;;;6261205;23;20023;-90
2021/03/14 01:26:38;;;;;;;18.23;2.42;;;;;;;;;;6236635;23;20008;-89
2021/03/14 01:29:06;;;;;;;19.65;2.50;;;;;;;;;;6261102;23;20013;-88
2021/03/14 01:31:33;;;;;;;19.25;2.60;;;;;;;;;;6210563;23;20035;-89
2021/03/14 01:34:01;;;;;;;21.05;2.75;;;;;;;;;;6260197;23;20100;-88
2021/03/14 01:36:28;;;;;;;15.30;2.45;;;;;;;;;;6234471;23;20012;-88
2021/03/14 01:38:56;;;;;;;21.30;3.22;;;;;;;;;;6259714;23;20062;-88
2021/03/14 01:41:23;;;;;;;12.52;2.00;;;;;;;;;;6235927;23;20017;-88
2021/03/14 01:43:50;;;;;;;19.67;2.83;;;;;;;;;;6260595;23;20016;-88
2021/03/14 01:46:17;;;;;;;24.50;3.20;;;;;;;;;;6235206;23;20063;-89
2021/03/14 01:48:45;;;;;;;19.02;2.80;;;;;;;;;;6236453;23;20092;-88
2021/03/14 01:51:12;;;;;;;11.82;2.45;;;;;;;;;;6261664;23;20047;-89
2021/03/14 01:53:40;;;;;;;18.38;2.40;;;;;;;;;;6234677;23;20016;-88
2021/03/14 01:56:07;;;;;;;21.92;3.10;;;;;;;;;;6259511;23;20012;-87
2021/03/14 01:58:35;;;;;;;15.43;2.60;;;;;;;;;;6234903;23;20433;-87
2021/03/14 02:01:02;;;;;;;12.65;2.97;;;;;;;;;;6260239;23;20030;-88
2021/03/14 02:03:30;;;;;;;21.30;3.08;;;;;;;;;;6233900;23;20433;-88
2021/03/14 02:05:57;;;;;;;20.95;2.88;;;;;;;;;;6260504;23;20013;-88
2021/03/14 02:08:24;;;;;;;17.08;2.60;;;;;;;;;;6234976;23;20016;-88
2021/03/14 02:10:54;;;;;;;18.58;3.05;;;;;;;;;;6260090;23;20017;-88
2021/03/14 02:13:25;;;;;;;17.88;2.95;;;;;;;;;;6259710;23;20380;-88
2021/03/14 02:16:08;;;;;;;22.92;3.70;;;;;;;;;;6260068;23;20016;-88
2021/03/14 02:18:37;;;;;;;16.55;2.67;;;;;;;;;;6260166;23;20013;-88
2021/03/14 02:21:05;;;;;;;19.02;2.72;;;;;;;;;;6260973;23;20460;-86
2021/03/14 02:23:47;;;;;;;17.88;2.97;;;;;;;;;;6234288;23;20094;-88
2021/03/14 02:26:26;;;;;;;23.75;3.33;;;;;;;;;;6260120;23;20341;-88
2021/03/14 02:28:54;;;;;;;19.85;2.95;;;;;;;;;;6260352;23;20424;-85
2021/03/14 02:31:25;;;;;;;18.58;3.00;;;;;;;;;;6259119;23;20492;-89
2021/03/14 02:34:00;;;;;;;19.00;3.88;;;;;;;;;;6258437;23;20013;-87
2021/03/14 02:36:29;;;;;;;20.47;3.10;;;;;;;;;;6258832;23;20083;-88
2021/03/14 02:38:57;;;;;;;18.27;3.28;;;;;;;;;;6259869;23;20012;-88
2021/03/14 02:41:25;;;;;;;18.30;2.78;;;;;;;;;;6260305;23;20087;-88
2021/03/14 02:43:52;;;;;;;25.27;2.88;;;;;;;;;;6260263;23;20008;-89
2021/03/14 02:46:20;;;;;;;15.73;2.55;;;;;;;;;;6260264;23;20034;-89
2021/03/14 02:48:48;;;;;;;14.07;2.28;;;;;;;;;;6260231;23;20372;-89
2021/03/14 02:51:16;;;;;;;21.83;2.75;;;;;;;;;;6235364;23;20071;-88
2021/03/14 02:53:44;;;;;;;24.40;3.50;;;;;;;;;;6209699;23;20340;-89
2021/03/14 02:56:11;;;;;;;19.10;3.38;;;;;;;;;;6260915;23;20017;-90
2021/03/14 02:58:39;;;;;;;21.30;2.95;;;;;;;;;;6234905;23;20459;-88
2021/03/14 03:01:07;;;;;;;20.50;2.95;;;;;;;;;;6260617;23;20418;-88
2021/03/14 03:03:35;;;;;;;26.75;2.85;;;;;;;;;;6259796;23;20019;-87
2021/03/14 03:06:03;;;;;;;17.23;2.63;;;;;;;;;;6234761;23;20009;-87
2021/03/14 03:08:31;;;;;;;19.90;3.28;;;;;;;;;;6234177;23;20087;-88
2021/03/14 03:11:00;;;;;;;20.33;2.55;;;;;;;;;;6233897;23;20329;-88
2021/03/14 03:13:28;;;;;;;14.18;2.83;;;;;;;;;;6259760;23;20468;-88
2021/03/14 03:15:58;;;;;;;15.80;3.22;;;;;;;;;;6235563;23;20043;-88
2021/03/14 03:18:26;;;;;;;24.80;3.17;;;;;;;;;;6234695;23;20012;-89
2021/03/14 03:20:55;;;;;;;12.05;1.90;;;;;;;;;;6234588;23;20013;-90
2021/03/14 03:23:22;;;;;;;17.30;2.55;;;;;;;;;;6259008;23;20043;-89
2021/03/14 03:25:50;;;;;;;19.10;2.72;;;;;;;;;;6234166;23;20009;-88
2021/03/14 03:28:17;;;;;;;15.20;2.47;;;;;;;;;;6234846;23;20008;-87
2021/03/14 03:30:45;;;;;;;19.52;2.65;;;;;;;;;;6259756;23;20012;-89
2021/03/14 03:33:12;;;;;;;17.65;3.03;;;;;;;;;;6259802;23;20399;-88
2021/03/14 03:35:39;;;;;;;17.95;2.90;;;;;;;;;;6259816;23;20013;-89
2021/03/14 03:38:08;;;;;;;16.48;2.33;;;;;;;;;;6235785;23;20032;-89
2021/03/14 03:40:36;;;;;;;20.83;3.38;;;;;;;;;;6234972;23;20008;-87
2021/03/14 03:43:15;;;;;;;26.52;3.33;;;;;;;;;;6235837;23;20338;-89
2021/03/14 03:45:44;;;;;;;22.15;2.65;;;;;;;;;;6269681;23;20015;-88
2021/03/14 03:48:14;;;;;;;17.40;2.95;;;;;;;;;;6235698;23;20020;-88
2021/03/14 03:50:42;;;;;;;20.65;2.80;;;;;;;;;;6233834;23;20012;-89
2021/03/14 03:53:11;;;;;;;22.05;2.40;;;;;;;;;;6235025;23;20138;-88
2021/03/14 03:55:39;;;;;;;21.23;3.15;;;;;;;;;;6259310;23;20040;-89
2021/03/14 03:58:10;;;;;;;26.25;3.30;;;;;;;;;;6262400;23;20023;-91
2021/03/14 04:00:37;;;;;;;17.08;2.50;;;;;;;;;;6262962;23;20384;-90
2021/03/14 04:03:05;;;;;;;21.48;3.42;;;;;;;;;;6262751;23;20066;-90
2021/03/14 04:05:33;;;;;;;17.98;2.60;;;;;;;;;;6261649;23;20338;-89
2021/03/14 04:08:00;;;;;;;19.83;3.20;;;;;;;;;;6262165;23;20044;-90
2021/03/14 04:10:28;;;;;;;17.42;3.10;;;;;;;;;;6236510;23;20055;-89
2021/03/14 04:12:57;;;;;;;17.50;2.78;;;;;;;;;;6261473;23;20008;-90
2021/03/14 04:15:25;;;;;;;25.27;2.40;;;;;;;;;;6236312;23;20009;-88
2021/03/14 04:17:53;;;;;;;21.13;2.50;;;;;;;;;;6260497;23;20017;-91
2021/03/14 04:20:23;;;;;;;15.85;2.63;;;;;;;;;;6261831;23;20012;-89
2021/03/14 04:22:52;;;;;;;19.02;2.67;;;;;;;;;;6260946;23;20096;-89
2021/03/14 04:25:20;;;;;;;20.80;2.97;;;;;;;;;;6261892;23;20028;-88
2021/03/14 04:27:49;;;;;;;23.27;3.08;;;;;;;;;;6236096;23;20334;-89
2021/03/14 04:30:17;;;;;;;22.40;3.00;;;;;;;;;;6236248;23;20008;-89
2021/03/14 04:32:45;;;;;;;21.23;2.85;;;;;;;;;;6236327;23;20013;-90
2021/03/14 04:35:13;;;;;;;17.15;3.00;;;;;;;;;;6236271;23;20092;-89
2021/03/14 04:37:41;;;;;;;19.35;2.63;;;;;;;;;;6236704;23;20009;-90
2021/03/14 04:40:10;;;;;;;21.25;3.58;;;;;;;;;;6237154;23;20425;-89
2021/03/14 04:42:38;;;;;;;19.35;3.42;;;;;;;;;;6261069;23;20012;-90
2021/03/14 04:45:07;;;;;;;16.67;2.60;;;;;;;;;;6237222;23;20427;-90
2021/03/14 04:47:35;;;;;;;25.35;3.13;;;;;;;;;;6260829;23;20008;-90
2021/03/14 04:50:04;;;;;;;25.55;3.30;;;;;;;;;;6236653;23;20009;-90
2021/03/14 04:52:32;;;;;;;17.83;2.90;;;;;;;;;;6236934;23;20017;-90
2021/03/14 04:54:59;;;;;;;23.42;2.95;;;;;;;;;;6261447;23;20032;-89
2021/03/14 04:57:28;;;;;;;17.58;2.67;;;;;;;;;;6212250;23;20028;-89
2021/03/14 04:59:55;;;;;;;19.40;2.78;;;;;;;;;;6236958;23;20021;-89
2021/03/14 05:02:23;;;;;;;19.58;3.53;;;;;;;;;;6235734;23;20016;-89
2021/03/14 05:04:52;;;;;;;25.92;3.33;;;;;;;;;;6235787;23;20092;-89
2021/03/14 05:07:20;;;;;;;22.27;3.35;;;;;;;;;;6261070;23;20013;-90
2021/03/14 05:09:48;;;;;;;30.92;3.80;;;;;;;;;;6236606;23;20013;-90
2021/03/14 05:12:18;;;;;;;17.27;3.00;;;;;;;;;;6236890;23;20345;-90
2021/03/14 05:14:45;;;;;;;24.90;3.30;;;;;;;;;;6235508;23;20062;-89
2021/03/14 05:17:13;;;;;;;21.25;3.70;;;;;;;;;;6260538;23;20039;-89
2021/03/14 05:19:46;;;;;;;20.05;2.83;;;;;;;;;;6260284;23;20050;-90
2021/03/14 05:22:13;;;;;;;23.00;3.42;;;;;;;;;;6211657;23;20013;-89
2021/03/14 05:24:42;;;;;;;20.65;3.15;;;;;;;;;;6261641;23;20311;-89
2021/03/14 05:27:10;;;;;;;14.82;2.70;;;;;;;;;;6261885;23;20031;-90
2021/03/14 05:29:37;;;;;;;20.65;3.38;;;;;;;;;;6262142;23;20008;-89
2021/03/14 05:32:05;;;;;;;20.83;3.10;;;;;;;;;;6237016;23;20020;-90
2021/03/14 05:34:32;;;;;;;21.55;3.55;;;;;;;;;;6236771;23;20066;-90
2021/03/14 05:36:59;;;;;;;23.92;3.30;;;;;;;;;;6260679;23;20023;-89
2021/03/14 05:39:27;;;;;;;22.15;3.55;;;;;;;;;;6236420;23;20016;-90
2021/03/14 05:41:55;;;;;;;20.52;3.55;;;;;;;;;;6236565;23;20040;-89
2021/03/14 05:44:22;;;;;;;24.60;4.32;;;;;;;;;;6261258;23;20452;-89
2021/03/14 05:46:49;;;;;;;22.13;4.10;;;;;;;;;;6260180;23;20805;-88
2021/03/14 05:49:16;;;;;;;23.45;3.78;;;;;;;;;;6260166;23;20021;-89
2021/03/14 05:51:45;;;;;;;25.75;3.60;;;;;;;;;;6235394;23;20071;-89
2021/03/14 05:54:18;;;;;;;28.73;4.35;;;;;;;;;;6260790;23;20019;-88
2021/03/14 05:56:46;;;;;;;25.38;3.47;;;;;;;;;;6260055;23;20009;-89
2021/03/14 05:59:15;;;;;;;22.10;3.58;;;;;;;;;;6260538;23;20009;-89
2021/03/14 06:01:48;;;;;;;25.65;4.07;;;;;;;;;;6259061;23;20013;-90
2021/03/14 06:04:16;;;;;;;20.95;3.72;;;;;;;;;;6259170;23;20045;-89
2021/03/14 06:06:43;;;;;;;21.50;4.20;;;;;;;;;;6258671;23;20012;-89
2021/03/14 06:09:12;;;;;;;25.13;4.18;;;;;;;;;;6235784;23;20008;-88
2021/03/14 06:11:39;;;;;;;23.80;3.40;;;;;;;;;;6261015;23;20008;-90
2021/03/14 06:14:07;;;;;;;28.77;4.50;;;;;;;;;;6260361;23;20016;-89
2021/03/14 06:16:34;;;;;;;24.85;3.38;;;;;;;;;;6210950;23;20325;-89
2021/03/14 06:19:02;;;;;;;25.15;3.88;;;;;;;;;;6259808;23;20024;-89
2021/03/14 06:21:30;;;;;;;27.20;4.10;;;;;;;;;;6235420;23;20013;-89
2021/03/14 06:24:05;;;;;;;28.33;3.70;;;;;;;;;;6259534;23;20016;-88
2021/03/14 06:26:38;;;;;;;27.17;4.05;;;;;;;;;;6260801;23;20016;-89
2021/03/14 06:29:26;;;;;;;23.92;3.75;;;;;;;;;;6260665;23;20477;-89
2021/03/14 06:32:00;;;;;;;24.65;3.65;;;;;;;;;;6234873;23;20445;-89
2021/03/14 06:34:29;;;;;;;24.60;3.92;;;;;;;;;;6261004;23;20016;-89
2021/03/14 06:40:11;;;;;;;25.88;3.60;;;;;;;;;;6241855;23;20016;-91
2021/03/14 06:42:40;;;;;;;29.13;4.60;;;;;;;;;;6260882;23;20032;-89
2021/03/14 06:45:07;;;;;;;19.42;3.90;;;;;;;;;;6235562;23;20095;-89
2021/03/14 06:47:37;;;;;;;23.58;3.58;;;;;;;;;;6261212;23;20452;-89
2021/03/14 06:50:05;;;;;;;20.42;3.72;;;;;;;;;;6262077;23;20015;-89
2021/03/14 06:52:32;;;;;;;18.13;3.65;;;;;;;;;;6260954;23;20017;-90
2021/03/14 06:55:00;;;;;;;17.92;3.03;;;;;;;;;;6260769;23;20321;-88
2021/03/14 06:57:27;;;;;;;18.50;3.83;;;;;;;;;;6235545;23;20020;-90
2021/03/14 06:59:59;;;;;;;28.30;3.95;;;;;;;;;;6236477;23;20035;-90
2021/03/14 07:02:28;;;;;;;21.15;3.40;;;;;;;;;;6261362;23;20017;-88
2021/03/14 07:05:04;;;;;;;18.70;3.75;;;;;;;;;;6259922;23;20012;-90
2021/03/14 07:07:33;;;;;;;26.73;4.07;;;;;;;;;;6260105;23;20012;-89
2021/03/14 07:10:07;;;;;;;14.30;3.63;;;;;;;;;;6259211;23;20013;-90
2021/03/14 07:12:38;;;;;;;20.83;4.03;;;;;;;;;;6259914;23;20020;-89
2021/03/14 07:15:19;;;;;;;22.83;3.53;;;;;;;;;;6259288;23;20028;-91
2021/03/14 07:17:51;;;;;;;22.20;4.03;;;;;;;;;;6234393;23;20032;-91
2021/03/14 07:20:23;;;;;;;20.50;3.70;;;;;;;;;;6259455;23;20084;-88
2021/03/14 07:23:00;;;;;;;24.52;4.00;;;;;;;;;;6233533;23;20012;-89
2021/03/14 07:25:28;;;;;;;23.00;3.88;;;;;;;;;;6270438;23;20013;-90
2021/03/14 07:27:56;;;;;;;17.67;3.53;;;;;;;;;;6235841;23;20008;-93
2021/03/14 07:30:24;;;;;;;14.65;3.25;;;;;;;;;;6236319;23;20059;-91
2021/03/14 07:32:52;;;;;;;22.95;3.85;;;;;;;;;;6262731;23;20087;-91
2021/03/14 07:35:20;;;;;;;23.35;3.78;;;;;;;;;;6262797;23;20032;-91
2021/03/14 07:37:51;;;;;;;19.02;3.65;;;;;;;;;;6237704;23;20013;-89
2021/03/14 07:40:20;;;;;;;22.92;4.32;;;;;;;;;;6238233;23;20008;-90
2021/03/14 07:42:49;;;;;;;22.15;3.60;;;;;;;;;;6262077;23;20023;-91
2021/03/14 07:48:47;;;;;;;18.80;3.63;;;;;;;;;;6239912;23;20019;-90
2021/03/14 07:51:16;;;;;;;19.88;3.78;;;;;;;;;;6261619;23;20019;-89
2021/03/14 07:53:44;;;;;;;19.08;3.38;;;;;;;;;;6262767;23;20016;-89
2021/03/14 07:56:12;;;;;;;15.00;3.25;;;;;;;;;;6261903;23;20349;-92
2021/03/14 07:58:39;;;;;;;21.48;3.65;;;;;;;;;;6264068;23;20084;-89
2021/03/14 08:01:25;;;;;;;21.88;3.58;;;;;;;;;;6261320;23;20119;-89
2021/03/14 08:03:52;;;;;;;;;;;;;;;;;;6237534;23;20008;-90
2021/03/14 08:06:38;;;;;;;15.68;2.83;;;;;;;;;;6233749;23;19935;-90
2021/03/14 08:09:06;;;;;;;19.13;4.10;;;;;;;;;;6258459;23;20019;-92
2021/03/14 08:11:34;;;;;;;16.92;3.20;;;;;;;;;;6259556;23;20031;-89
2021/03/14 08:14:01;;;;;;;14.48;3.65;;;;;;;;;;6233989;23;20016;-90
2021/03/14 08:16:29;;;;;;;16.98;3.70;;;;;;;;;;6234108;23;20009;-78
2021/03/14 08:19:02;;;;;;;19.35;3.70;;;;;;;;;;6258632;23;20453;-75
2021/03/14 08:21:29;;;;;;;17.42;3.63;;;;;;;;;;6238686;23;20009;-88
2021/03/14 08:23:57;;;;;;;23.70;3.55;;;;;;;;;;6261657;23;20013;-91
2021/03/14 08:26:28;;;;;;;16.40;3.10;;;;;;;;;;6257822;23;20016;-89
2021/03/14 08:28:56;;;;;;;22.30;2.70;;;;;;;;;;6258200;23;20492;-89
2021/03/14 08:31:36;;;;;;;17.75;3.35;;;;;;;;;;6233230;23;20096;-90
2021/03/14 08:34:04;;;;;;;11.75;3.15;;;;;;;;;;6258789;23;20044;-90
2021/03/14 08:36:33;;;;;;;20.77;2.95;;;;;;;;;;6234184;23;20019;-92
2021/03/14 08:39:00;;;;;;;22.05;3.30;;;;;;;;;;6234468;23;20038;-91
2021/03/14 08:41:40;;;;;;;18.70;3.17;;;;;;;;;;6210623;23;20019;-86
2021/03/14 08:44:13;;;;;;;10.23;2.67;;;;;;;;;;6236267;23;20016;-88
2021/03/14 08:46:46;;;;;;;16.75;2.50;;;;;;;;;;6236310;23;20019;-88
2021/03/14 08:49:14;;;;;;;13.30;2.58;;;;;;;;;;6234940;23;20013;-87
2021/03/14 08:51:42;;;;;;;17.73;2.72;;;;;;;;;;6260048;23;20107;-88
2021/03/14 08:54:09;;;;;;;15.07;2.72;;;;;;;;;;6234315;23;20032;-90
2021/03/14 08:56:36;;;;;;;13.32;2.88;;;;;;;;;;6259656;23;20013;-89
2021/03/14 08:59:07;;;;;;;16.90;2.63;;;;;;;;;;6260320;23;20008;-88
2021/03/14 09:01:35;;;;;;;13.90;3.35;;;;;;;;;;6236505;23;20380;-90
2021/03/14 09:04:12;;;;;;;11.75;2.50;;;;;;;;;;6235997;23;20036;-91
2021/03/14 09:06:39;;;;;;;14.45;2.67;;;;;;;;;;6236629;23;20338;-90
2021/03/14 09:09:11;;;;;;;14.70;2.35;;;;;;;;;;6235507;23;20480;-91
2021/03/14 09:11:41;;;;;;;12.93;2.35;;;;;;;;;;6235341;23;20016;-90
2021/03/14 09:14:18;;;;;;;10.60;2.30;;;;;;;;;;6261571;23;20455;-89
2021/03/14 09:16:46;;;;;;;12.57;2.03;;;;;;;;;;6260754;23;20024;-90
2021/03/14 09:19:27;;;;;;;11.40;1.90;;;;;;;;;;6260351;23;20008;-90
2021/03/14 09:22:06;;;;;;;14.43;1.65;;;;;;;;;;6260108;23;20016;-91
2021/03/14 09:24:40;;;;;;;9.20;1.75;;;;;;;;;;6234857;23;20012;-90
2021/03/14 09:27:09;;;;;;;12.80;2.58;;;;;;;;;;6234688;23;20016;-91
2021/03/14 09:29:40;;;;;;;11.57;2.13;;;;;;;;;;6235680;23;20459;-89
2021/03/14 09:32:16;;;;;;;11.95;1.73;;;;;;;;;;6259514;23;20016;-88
2021/03/14 09:34:43;;;;;;;12.05;2.00;;;;;;;;;;6258892;23;20035;-91
2021/03/14 09:37:11;;;;;;;11.07;2.13;;;;;;;;;;6259231;23;20096;-90
2021/03/14 09:39:38;;;;;;;8.80;1.58;;;;;;;;;;6209656;23;20429;-88
2021/03/14 09:42:06;;;;;;;11.55;2.33;;;;;;;;;;6233712;23;20067;-89
2021/03/14 09:44:33;;;;;;;13.30;1.98;;;;;;;;;;6259879;23;20062;-89
2021/03/14 09:47:01;;;;;;;7.90;1.40;;;;;;;;;;6234270;23;20494;-90
2021/03/14 09:49:29;;;;;;;9.32;1.92;;;;;;;;;;6234900;23;20065;-89
2021/03/14 09:51:57;;;;;;;7.47;1.70;;;;;;;;;;6260454;23;19999;-89
2021/03/14 09:54:25;;;;;;;10.07;2.45;;;;;;;;;;6236206;23;20571;-89
2021/03/14 09:56:53;;;;;;;7.88;1.65;;;;;;;;;;6235785;23;20017;-89
2021/03/14 09:59:27;;;;;;;9.95;1.70;;;;;;;;;;6259910;23;20059;-89
2021/03/14 10:01:56;;;;;;;7.13;1.30;;;;;;;;;;6260299;23;20009;-91
2021/03/14 10:04:23;;;;;;;10.15;2.10;;;;;;;;;;6259843;23;20035;-89
2021/03/14 10:06:50;;;;;;;9.70;1.98;;;;;;;;;;6235978;23;20063;-90
2021/03/14 10:09:24;;;;;;;10.98;1.60;;;;;;;;;;6261143;23;20005;-91
2021/03/14 10:11:53;;;;;;;9.80;1.90;;;;;;;;;;6236426;23;20039;-90
2021/03/14 10:14:21;;;;;;;9.55;1.48;;;;;;;;;;6259857;23;20017;-89
2021/03/14 10:16:49;;;;;;;7.88;1.65;;;;;;;;;;6236989;23;20092;-89
2021/03/14 10:19:17;;;;;;;7.00;1.60;;;;;;;;;;6233635;23;20400;-91
2021/03/14 10:21:47;;;;;;;8.23;1.85;;;;;;;;;;6259428;23;20051;-95
2021/03/14 10:24:22;;;;;;;4.00;1.33;;;;;;;;;;6258372;23;20009;-93
2021/03/14 10:27:03;;;;;;;9.82;1.83;;;;;;;;;;6258835;23;20015;-94
2021/03/14 10:29:32;;;;;;;11.23;1.73;;;;;;;;;;6260749;23;20039;-93
2021/03/14 10:31:59;;;;;;;9.70;1.70;;;;;;;;;;6259617;23;20009;-93
2021/03/14 10:34:27;;;;;;;9.35;2.08;;;;;;;;;;6257780;23;20016;-91
2021/03/14 10:36:54;;;;;;;10.45;1.80;;;;;;;;;;6258750;23;20016;-93
2021/03/14 10:39:26;;;;;;;9.00;1.75;;;;;;;;;;6258109;23;20438;-93
2021/03/14 10:41:53;;;;;;;10.90;1.70;;;;;;;;;;6234153;23;20016;-94
2021/03/14 10:44:24;;;;;;;7.93;1.90;;;;;;;;;;6258539;23;20032;-93
2021/03/14 10:46:54;;;;;;;8.95;2.03;;;;;;;;;;6259699;23;20047;-92
2021/03/14 10:49:24;;;;;;;7.47;1.98;;;;;;;;;;6234228;23;20016;-93
2021/03/14 10:51:55;;;;;;;12.40;2.00;;;;;;;;;;6233624;23;20319;-92
2021/03/14 10:54:23;;;;;;;5.65;1.80;;;;;;;;;;6232724;23;20036;-93
2021/03/14 10:56:51;;;;;;;8.13;1.75;;;;;;;;;;6209342;23;20020;-93
2021/03/14 10:59:25;;;;;;;8.85;2.47;;;;;;;;;;6259040;23;20012;-91
2021/03/14 11:02:00;;;;;;;11.00;3.53;;;;;;;;;;6258654;23;20069;-92
2021/03/14 11:04:29;;;;;;;9.70;3.30;;;;;;;;;;6258314;23;20016;-93
2021/03/14 11:06:57;;;;;;;11.15;3.15;;;;;;;;;;6258916;23;20013;-93
2021/03/14 11:09:26;;;;;;;11.15;2.58;;;;;;;;;;6207132;23;20314;-92
2021/03/14 11:11:54;;;;;;;17.80;3.53;;;;;;;;;;6233584;23;20345;-93
2021/03/14 11:14:26;;;;;;;9.85;3.35;;;;;;;;;;6233318;23;20052;-93
2021/03/14 11:17:06;;;;;;;13.88;2.95;;;;;;;;;;6258813;23;20027;-92
2021/03/14 11:19:33;;;;;;;11.73;2.10;;;;;;;;;;6259022;23;20020;-93
2021/03/14 11:22:01;;;;;;;16.33;3.33;;;;;;;;;;6258617;23;20370;-92
2021/03/14 11:24:28;;;;;;;11.68;2.05;;;;;;;;;;6233055;23;20020;-94
2021/03/14 11:26:55;;;;;;;12.93;2.67;;;;;;;;;;6258548;23;20015;-93
2021/03/14 11:29:23;;;;;;;9.50;2.00;;;;;;;;;;6234177;23;20665;-93
2021/03/14 11:31:50;;;;;;;10.20;2.13;;;;;;;;;;6258877;23;20008;-92
2021/03/14 11:34:18;;;;;;;12.32;2.65;;;;;;;;;;6258864;23;20028;-92
2021/03/14 11:36:45;;;;;;;12.57;2.03;;;;;;;;;;6259958;23;20307;-92
2021/03/14 11:39:12;;;;;;;11.13;2.00;;;;;;;;;;6234093;23;20083;-90
2021/03/14 11:41:39;;;;;;;10.02;2.63;;;;;;;;;;6234840;23;20058;-93
2021/03/14 11:44:07;;;;;;;8.85;2.15;;;;;;;;;;6235161;23;20024;-93
2021/03/14 11:46:34;;;;;;;9.10;2.35;;;;;;;;;;6234129;23;20016;-93
2021/03/14 11:49:05;;;;;;;12.35;2.72;;;;;;;;;;6259459;23;20017;-92
2021/03/14 11:51:33;;;;;;;8.82;1.83;;;;;;;;;;6258308;23;20179;-91
2021/03/14 11:54:03;;;;;;;10.90;1.85;;;;;;;;;;6233059;23;20021;-91
2021/03/14 11:56:30;;;;;;;10.30;1.92;;;;;;;;;;6233369;23;20008;-93
2021/03/14 11:59:07;;;;;;;6.18;1.60;;;;;;;;;;6235156;23;20024;-89
2021/03/14 12:01:34;;;;;;;10.55;2.45;;;;;;;;;;6257062;23;20043;-90
2021/03/14 12:04:01;;;;;;;7.35;1.45;;;;;;;;;;6233838;23;20017;-91
2021/03/14 12:06:28;;;;;;;8.63;1.70;;;;;;;;;;6233638;23;20044;-91
2021/03/14 12:08:56;;;;;;;10.88;1.75;;;;;;;;;;6232644;23;20019;-91
2021/03/14 12:11:23;;;;;;;7.47;1.95;;;;;;;;;;6257063;23;20009;-90
2021/03/14 12:13:51;;;;;;;8.50;1.75;;;;;;;;;;6257313;23;20112;-88
2021/03/14 12:16:18;;;;;;;11.63;1.83;;;;;;;;;;6232749;23;20023;-88
2021/03/14 12:18:46;;;;;;;9.95;1.88;;;;;;;;;;6260918;23;20036;-89
2021/03/14 12:21:13;;;;;;;9.48;1.70;;;;;;;;;;6209706;23;20012;-88
2021/03/14 12:23:40;;;;;;;10.70;2.15;;;;;;;;;;6258794;23;20083;-89
2021/03/14 12:26:08;;;;;;;9.90;1.85;;;;;;;;;;6260032;23;20040;-90
2021/03/14 12:28:35;;;;;;;7.10;1.90;;;;;;;;;;6234689;23;20088;-91
2021/03/14 12:31:02;;;;;;;7.50;2.20;;;;;;;;;;6234433;23;20016;-90
2021/03/14 12:33:32;;;;;;;13.75;2.03;;;;;;;;;;6208658;23;20452;-90
2021/03/14 12:36:00;;;;;;;6.40;1.50;;;;;;;;;;6210990;23;20028;-88
2021/03/14 12:38:27;;;;;;;7.97;1.65;;;;;;;;;;6234410;23;20397;-89
2021/03/14 12:40:54;;;;;;;9.68;1.70;;;;;;;;;;6234788;23;20013;-89
2021/03/14 12:43:22;;;;;;;8.25;2.05;;;;;;;;;;6234073;23;20442;-90
2021/03/14 12:45:50;;;;;;;14.38;2.08;;;;;;;;;;6234219;23;20012;-88
2021/03/14 12:48:17;;;;;;;12.27;2.17;;;;;;;;;;6235256;23;20016;-88
2021/03/14 12:50:46;;;;;;;11.55;1.73;;;;;;;;;;6259813;23;20044;-90
2021/03/14 12:53:13;;;;;;;11.45;1.90;;;;;;;;;;6261152;23;20071;-90
2021/03/14 12:55:41;;;;;;;7.22;2.05;;;;;;;;;;6260581;23;20083;-90
2021/03/14 12:58:08;;;;;;;10.65;1.95;;;;;;;;;;6259694;23;20040;-91
2021/03/14 13:00:35;;;;;;;9.10;1.95;;;;;;;;;;6233945;23;20070;-90
2021/03/14 13:03:03;;;;;;;11.00;1.90;;;;;;;;;;6259046;23;20023;-91
2021/03/14 13:05:30;;;;;;;11.63;1.92;;;;;;;;;;6233689;23;20072;-91
2021/03/14 13:07:57;;;;;;;10.38;1.80;;;;;;;;;;6234164;23;20042;-91
2021/03/14 13:10:25;;;;;;;9.27;1.55;;;;;;;;;;6233779;23;20146;-89
2021/03/14 13:12:52;;;;;;;10.07;1.70;;;;;;;;;;6259166;23;20138;-90
2021/03/14 13:15:20;;;;;;;12.82;2.33;;;;;;;;;;6233328;23;20106;-87
2021/03/14 13:17:48;;;;;;;6.20;1.30;;;;;;;;;;6233501;23;20342;-90
2021/03/14 13:20:17;;;;;;;6.00;1.58;;;;;;;;;;6259409;23;20012;-90
2021/03/14 13:22:45;;;;;;;7.53;1.73;;;;;;;;;;6234117;23;20012;-90
2021/03/14 13:25:12;;;;;;;7.78;1.52;;;;;;;;;;6234229;23;20024;-87
2021/03/14 13:27:40;;;;;;;10.70;2.00;;;;;;;;;;6260308;23;20020;-90
2021/03/14 13:30:08;;;;;;;10.20;1.67;;;;;;;;;;6260747;23;20023;-90
2021/03/14 13:32:36;;;;;;;8.05;1.65;;;;;;;;;;6257990;23;20334;-89
2021/03/14 13:35:04;;;;;;;9.35;2.00;;;;;;;;;;6208623;23;20009;-89
2021/03/14 13:37:31;;;;;;;10.77;1.70;;;;;;;;;;6258906;23;20008;-91
2021/03/14 13:39:58;;;;;;;8.35;1.38;;;;;;;;;;6235755;23;20069;-93
2021/03/14 13:42:26;;;;;;;9.00;1.55;;;;;;;;;;6261033;23;20078;-92
2021/03/14 13:44:53;;;;;;;7.95;1.70;;;;;;;;;;6235524;23;20008;-92
2021/03/14 13:47:20;;;;;;;6.22;1.65;;;;;;;;;;6236126;23;20019;-92
2021/03/14 13:49:47;;;;;;;9.05;1.80;;;;;;;;;;6234361;23;20016;-90
2021/03/14 13:52:15;;;;;;;8.38;1.75;;;;;;;;;;6259228;23;20023;-91
2021/03/14 13:54:42;;;;;;;14.02;1.83;;;;;;;;;;6235663;23;20009;-91
2021/03/14 13:57:10;;;;;;;12.38;2.50;;;;;;;;;;6261067;23;20013;-92
2021/03/14 13:59:37;;;;;;;13.57;3.00;;;;;;;;;;6235461;23;20012;-90
2021/03/14 14:02:05;;;;;;;14.98;2.95;;;;;;;;;;6259958;23;20031;-91
2021/03/14 14:04:32;;;;;;;12.55;2.38;;;;;;;;;;6259862;23;20396;-92
2021/03/14 14:06:59;;;;;;;10.85;1.67;;;;;;;;;;6235474;23;20008;-91
2021/03/14 14:09:26;;;;;;;7.07;1.83;;;;;;;;;;6234104;23;20095;-90
2021/03/14 14:11:54;;;;;;;10.15;1.80;;;;;;;;;;6234423;23;20020;-91
2021/03/14 14:14:21;;;;;;;10.18;2.08;;;;;;;;;;6259429;23;20008;-91
2021/03/14 14:16:48;;;;;;;10.80;1.73;;;;;;;;;;6233672;23;20120;-92
2021/03/14 14:19:15;;;;;;;12.15;1.80;;;;;;;;;;6234205;23;20013;-90
2021/03/14 14:21:43;;;;;;;13.93;2.80;;;;;;;;;;6234995;23;20437;-92
2021/03/14 14:24:10;;;;;;;12.15;2.55;;;;;;;;;;6234967;23;20095;-92
2021/03/14 14:26:38;;;;;;;12.63;2.33;;;;;;;;;;6235029;23;20087;-92
2021/03/14 14:29:05;;;;;;;12.50;1.90;;;;;;;;;;6260939;23;20434;-92
2021/03/14 14:31:32;;;;;;;11.32;2.00;;;;;;;;;;6236056;23;20020;-92
2021/03/14 14:33:59;;;;;;;11.60;2.05;;;;;;;;;;6259998;23;20017;-91
2021/03/14 14:36:27;;;;;;;9.98;1.98;;;;;;;;;;6236033;23;20028;-91
2021/03/14 14:38:54;;;;;;;15.07;2.50;;;;;;;;;;6261055;23;20107;-91
2021/03/14 14:41:21;;;;;;;10.40;2.47;;;;;;;;;;6236756;23;20016;-93
2021/03/14 14:43:48;;;;;;;11.10;2.25;;;;;;;;;;6237250;23;20037;-93
2021/03/14 14:46:16;;;;;;;8.30;1.80;;;;;;;;;;6236079;23;20013;-91
2021/03/14 14:48:43;;;;;;;9.73;1.70;;;;;;;;;;6236169;23;20333;-91